ENBS

Båtsfjord Airport

Båtsfjord, Norway
METAR ENBS 252020Z 21015KT CAVOK 09/02 Q1014
Observed Flight Rules
May-25 @ 20:20 UTC (2 hours ago) Visual Flight Rules
Wind Visibility Clouds
210° at 15 knots 10,000+ meters
  • Clear skies
Temperatures Readings
Current 9°C / 48°F
Dewpoint 2°C / 36°F
Humidity 62%
Altimeter 29.94" Hg
Pressure 1014 hPa
Elevation 10
METAR ENBS 252020Z 21015KT CAVOK 09/02 Q1014
Observed Flight Rules
May-25 @ 20:20 UTC
(2 hours ago)
VFR
Wind Visibility
210° at 15 knots 10,000+ meters
Clouds
  • Clear skies
Temperature Dewpoint
9°C / 48°F 2°C / 36°F
Humidity Altimeter Pressure
62% 29.94" Hg 1014 hPa